Time;durP1;ratioP1;P1;durP2;ratioP2;P2;SDS_P1;SDS_P2;PMS_P1;PMS_P2;Temp;Humidity;BMP_temperature;BMP_pressure;BME280_temperature;BME280_humidity;BME280_pressure;Samples;Min_cycle;Max_cycle;Signal;HPM_P1;HPM_P2
2023/08/15 00:00:55;;;;;;;14.50;9.00;;;;;;;23.28;68.92;99344.91;223436;182;138936;-66
2023/08/15 00:06:05;;;;;;;14.10;8.20;;;;;;;23.23;69.25;99349.40;223546;182;144638;-65
2023/08/15 00:11:09;;;;;;;14.60;8.50;;;;;;;23.19;69.32;99357.10;223494;182;139187;-65
2023/08/15 00:16:12;;;;;;;16.80;9.20;;;;;;;23.18;69.51;99355.98;223547;182;137494;-65
2023/08/15 00:21:15;;;;;;;15.80;8.70;;;;;;;23.15;69.72;99357.29;223449;182;145982;-69
2023/08/15 00:26:18;;;;;;;12.10;8.30;;;;;;;23.11;69.80;99353.70;223374;183;139678;-69
2023/08/15 00:31:21;;;;;;;11.60;8.80;;;;;;;23.06;69.92;99350.16;223496;182;138142;-65
2023/08/15 00:36:25;;;;;;;16.40;8.20;;;;;;;23.02;70.10;99347.20;223439;182;146648;-66
2023/08/15 00:41:30;;;;;;;13.90;7.50;;;;;;;22.97;70.19;99347.43;223458;183;139846;-66
2023/08/15 00:46:34;;;;;;;14.90;8.10;;;;;;;22.96;70.10;99346.10;223315;183;137964;-65
2023/08/15 00:51:37;;;;;;;12.30;8.20;;;;;;;22.95;69.94;99344.91;223443;183;144670;-62
2023/08/15 00:56:41;;;;;;;14.10;8.70;;;;;;;22.88;69.74;99343.04;223341;182;138907;-66
2023/08/15 01:01:45;;;;;;;12.40;7.90;;;;;;;22.80;69.86;99343.96;223422;183;140206;-65
2023/08/15 01:06:49;;;;;;;12.20;8.70;;;;;;;22.73;69.95;99340.23;223455;182;145829;-67
2023/08/15 01:12:32;;;;;;;11.40;7.90;;;;;;;22.62;70.41;99339.20;223386;183;138984;-64
2023/08/15 01:17:39;;;;;;;13.10;7.90;;;;;;;22.57;70.67;99338.79;223427;182;137403;-64
2023/08/15 01:22:45;;;;;;;11.10;8.00;;;;;;;22.54;70.58;99337.01;223436;182;147050;-66
2023/08/15 01:27:58;;;;;;;16.80;8.00;;;;;;;22.53;70.94;99337.95;223365;182;140644;-64
2023/08/15 01:33:11;;;;;;;12.30;7.90;;;;;;;22.51;70.91;99343.27;223206;183;136818;-64
2023/08/15 01:38:26;;;;;;;15.80;8.00;;;;;;;22.50;71.25;99337.19;223483;182;146455;-65
2023/08/15 01:43:31;;;;;;;10.00;7.90;;;;;;;22.42;71.30;99338.02;223191;183;139616;-66
2023/08/15 01:48:43;;;;;;;11.30;7.60;;;;;;;22.36;71.39;99334.19;223419;182;137905;-65
2023/08/15 01:53:46;;;;;;;12.50;7.80;;;;;;;22.31;71.56;99338.34;223368;183;146512;-64
2023/08/15 01:58:49;;;;;;;9.80;7.90;;;;;;;22.31;71.70;99341.11;223320;183;138978;-63
2023/08/15 02:03:52;;;;;;;12.90;8.00;;;;;;;22.30;71.71;99339.77;223373;182;136645;-64
2023/08/15 02:08:55;;;;;;;10.00;7.90;;;;;;;22.29;71.67;99338.82;223311;182;145808;-64
2023/08/15 02:13:59;;;;;;;17.10;7.60;;;;;;;22.25;71.75;99337.77;223214;182;139889;-64
2023/08/15 02:19:02;;;;;;;10.00;7.60;;;;;;;22.18;71.77;99339.13;223444;182;139413;-64
2023/08/15 02:24:06;;;;;;;12.00;7.80;;;;;;;22.11;71.82;99341.70;223460;182;147076;-65
2023/08/15 02:29:09;;;;;;;11.70;7.10;;;;;;;22.05;71.93;99342.92;223330;182;138587;-62
2023/08/15 02:34:13;;;;;;;16.30;8.00;;;;;;;22.03;71.95;99339.48;223403;182;137957;-65
2023/08/15 02:39:23;;;;;;;12.40;8.40;;;;;;;22.03;71.96;99347.77;223441;183;146827;-67
2023/08/15 02:44:27;;;;;;;15.70;8.90;;;;;;;21.97;71.64;99348.92;223357;182;139758;-65
2023/08/15 02:49:32;;;;;;;14.00;8.40;;;;;;;21.87;71.30;99354.85;223398;182;137086;-66
2023/08/15 02:54:36;;;;;;;13.90;8.50;;;;;;;21.80;71.66;99355.96;223324;182;146868;-66
2023/08/15 02:59:39;;;;;;;13.70;8.10;;;;;;;21.74;71.68;99355.70;223456;182;139609;-66
2023/08/15 03:04:42;;;;;;;12.90;8.30;;;;;;;21.71;71.82;99362.34;223465;182;137765;-65
2023/08/15 03:09:45;;;;;;;12.90;7.10;;;;;;;21.72;71.97;99364.73;223443;182;145897;-66
2023/08/15 03:14:49;;;;;;;12.20;8.00;;;;;;;21.71;72.04;99371.58;223469;182;138966;-66
2023/08/15 03:19:54;;;;;;;11.00;7.40;;;;;;;21.67;72.23;99373.90;223405;182;138008;-65
2023/08/15 03:24:58;;;;;;;13.40;8.20;;;;;;;21.61;72.43;99375.45;223433;182;145782;-67
2023/08/15 03:30:01;;;;;;;15.60;7.90;;;;;;;21.53;72.55;99376.31;223315;182;138702;-67
2023/08/15 03:35:06;;;;;;;13.70;8.00;;;;;;;21.49;72.86;99381.36;223414;182;138489;-66
2023/08/15 03:40:09;;;;;;;12.90;9.00;;;;;;;21.48;72.88;99381.42;223400;182;145573;-65
2023/08/15 03:45:14;;;;;;;14.00;7.80;;;;;;;21.48;73.16;99384.37;223358;182;139846;-65
2023/08/15 03:50:25;;;;;;;13.10;8.50;;;;;;;21.48;73.24;99383.44;223415;182;137009;-65
2023/08/15 03:55:31;;;;;;;14.10;8.70;;;;;;;21.47;73.41;99375.63;223428;182;147124;-65
2023/08/15 04:00:35;;;;;;;12.80;8.00;;;;;;;21.46;73.63;99372.80;223345;182;141911;-63
2023/08/15 04:05:39;;;;;;;9.40;7.50;;;;;;;21.47;73.85;99377.96;223514;182;137107;-65
2023/08/15 04:10:47;;;;;;;19.40;8.80;;;;;;;21.51;74.00;99377.58;223326;183;146324;-65
2023/08/15 04:15:52;;;;;;;11.00;8.60;;;;;;;21.58;74.27;99378.52;223435;182;138936;-64
2023/08/15 04:20:56;;;;;;;18.70;10.00;;;;;;;21.64;74.46;99378.63;223441;182;137439;-64
2023/08/15 04:26:00;;;;;;;18.70;10.60;;;;;;;21.70;74.66;99376.71;223439;182;145501;-63
2023/08/15 04:31:03;;;;;;;13.00;9.00;;;;;;;21.77;74.93;99378.70;223323;182;139595;-66
2023/08/15 04:36:07;;;;;;;16.80;8.40;;;;;;;21.83;74.84;99379.15;223611;182;138492;-66
2023/08/15 04:41:10;;;;;;;13.70;8.30;;;;;;;21.93;74.83;99382.27;223376;182;146566;-66
2023/08/15 04:46:14;;;;;;;10.40;8.30;;;;;;;22.02;74.58;99385.84;223418;182;140700;-66
2023/08/15 04:51:17;;;;;;;13.10;8.10;;;;;;;22.10;74.02;99385.88;223423;183;137260;-66
2023/08/15 04:56:23;;;;;;;10.50;7.70;;;;;;;22.13;73.68;99388.08;223323;182;145877;-68
2023/08/15 05:01:34;;;;;;;12.20;7.60;;;;;;;22.15;73.44;99389.19;223397;182;139663;-69
2023/08/15 05:06:48;;;;;;;16.00;7.70;;;;;;;22.23;73.30;99391.86;223437;182;138763;-68
2023/08/15 05:11:51;;;;;;;12.80;8.60;;;;;;;22.32;73.35;99393.54;223481;183;145716;-69
2023/08/15 05:16:55;;;;;;;15.90;8.10;;;;;;;22.45;73.42;99395.23;223387;182;139554;-66
2023/08/15 05:22:00;;;;;;;17.00;8.50;;;;;;;22.55;73.30;99398.53;223543;182;139945;-69
2023/08/15 05:27:04;;;;;;;13.60;8.90;;;;;;;22.66;73.09;99401.70;223439;182;146535;-67
2023/08/15 05:32:08;;;;;;;15.70;8.20;;;;;;;22.82;73.21;99399.29;223319;182;140018;-69
2023/08/15 05:37:11;;;;;;;10.80;8.00;;;;;;;23.00;73.08;99396.27;223385;182;138219;-64
2023/08/15 05:42:17;;;;;;;227.50;185.20;;;;;;;23.23;72.98;99402.85;223340;181;146055;-65
2023/08/15 05:47:21;;;;;;;55.30;44.60;;;;;;;23.45;72.75;99405.53;223407;183;140914;-65
2023/08/15 05:52:26;;;;;;;14.30;10.50;;;;;;;23.65;72.03;99404.27;223399;182;140259;-62
2023/08/15 05:57:29;;;;;;;69.70;53.80;;;;;;;23.79;71.57;99397.74;223431;182;145725;-62
2023/08/15 06:02:35;;;;;;;14.40;10.80;;;;;;;23.89;71.70;99403.21;223376;182;138774;-66
2023/08/15 06:07:38;;;;;;;9.30;6.40;;;;;;;23.98;69.45;99404.90;223378;182;137894;-66
2023/08/15 06:12:41;;;;;;;45.90;39.80;;;;;;;24.13;67.94;99407.70;223510;182;147265;-67
2023/08/15 06:17:44;;;;;;;143.70;115.90;;;;;;;24.29;66.73;99400.45;223505;182;139272;-66
2023/08/15 06:22:53;;;;;;;215.20;189.20;;;;;;;24.47;66.12;99398.41;223399;182;139609;-67
2023/08/15 06:28:01;;;;;;;19.90;16.30;;;;;;;24.59;64.96;99397.15;223207;182;148935;-64
2023/08/15 06:33:04;;;;;;;78.10;62.20;;;;;;;24.62;64.24;99402.71;223345;182;140901;-64
2023/08/15 06:38:07;;;;;;;101.50;82.50;;;;;;;24.69;63.95;99400.13;223381;182;136761;-64
2023/08/15 06:43:10;;;;;;;25.30;20.90;;;;;;;24.80;63.42;99398.44;223463;182;146035;-66
2023/08/15 06:48:14;;;;;;;12.30;10.10;;;;;;;24.88;62.98;99401.33;223394;182;141694;-68
2023/08/15 06:53:18;;;;;;;445.10;396.80;;;;;;;24.94;62.97;99402.80;223340;182;136726;-65
2023/08/15 06:58:22;;;;;;;64.70;56.80;;;;;;;25.05;63.00;99396.98;223496;182;146019;-67
2023/08/15 07:03:25;;;;;;;18.80;10.30;;;;;;;25.15;62.92;99402.80;223463;183;140620;-65
2023/08/15 07:08:29;;;;;;;13.70;10.90;;;;;;;25.21;61.79;99399.45;223361;182;137463;-64
2023/08/15 07:13:32;;;;;;;8.80;5.40;;;;;;;25.31;61.85;99410.75;223414;182;147855;-63
2023/08/15 07:18:36;;;;;;;432.00;355.80;;;;;;;25.38;59.88;99414.61;223393;182;138760;-64
2023/08/15 07:23:40;;;;;;;30.50;24.90;;;;;;;25.46;58.79;99411.69;223495;182;137820;-63
2023/08/15 07:33:37;;;;;;;7.40;5.20;;;;;;;25.62;57.92;99414.98;220801;194;1676154;-64
2023/08/15 07:38:41;;;;;;;161.30;127.20;;;;;;;25.72;57.13;99411.73;223037;185;137157;-65
2023/08/15 07:43:44;;;;;;;32.70;24.40;;;;;;;25.85;56.42;99413.58;223145;184;147093;-64
2023/08/15 07:48:48;;;;;;;33.20;27.80;;;;;;;25.95;55.65;99417.05;223093;184;139202;-65
2023/08/15 07:53:55;;;;;;;18.70;13.40;;;;;;;26.08;55.96;99414.55;223308;184;136615;-65
2023/08/15 07:59:03;;;;;;;10.20;7.40;;;;;;;26.20;56.28;99414.18;223218;185;143968;-63
2023/08/15 08:04:09;;;;;;;8.60;6.80;;;;;;;26.28;56.17;99409.73;223174;184;139039;-62
2023/08/15 08:09:13;;;;;;;9.20;5.40;;;;;;;26.36;55.67;99404.64;223281;184;137381;-63
2023/08/15 08:14:17;;;;;;;8.70;6.50;;;;;;;26.47;55.32;99403.16;223292;184;144145;-63
2023/08/15 08:19:24;;;;;;;67.40;56.50;;;;;;;26.55;54.24;99402.36;223082;184;140954;-62
2023/08/15 08:24:28;;;;;;;95.10;84.80;;;;;;;26.65;53.77;99399.98;223308;185;136959;-64
2023/08/15 08:29:32;;;;;;;209.70;168.20;;;;;;;26.79;54.21;99395.92;223268;184;145924;-62
2023/08/15 08:34:35;;;;;;;13.20;11.70;;;;;;;26.89;53.18;99398.31;223255;184;139481;-62
2023/08/15 08:39:43;;;;;;;11.40;7.40;;;;;;;26.98;52.16;99395.52;223158;184;136698;-62
2023/08/15 08:44:48;;;;;;;15.20;10.20;;;;;;;27.08;51.65;99390.23;223193;184;145741;-62
2023/08/15 08:49:53;;;;;;;116.30;94.00;;;;;;;27.22;51.72;99387.31;223074;185;138579;-63
2023/08/15 08:54:57;;;;;;;38.20;34.00;;;;;;;27.37;51.87;99385.54;223033;184;137583;-65
2023/08/15 09:00:12;;;;;;;71.10;61.50;;;;;;;27.52;50.80;99386.84;223002;184;145993;-63
2023/08/15 09:05:21;;;;;;;48.90;38.60;;;;;;;27.65;48.83;99383.45;222959;185;138595;-61
2023/08/15 09:10:29;;;;;;;16.30;9.50;;;;;;;27.75;48.90;99380.95;223205;185;139771;-62
2023/08/15 09:15:33;;;;;;;8.40;5.10;;;;;;;27.90;49.04;99378.35;222969;184;147680;-62
2023/08/15 09:20:46;;;;;;;18.40;14.40;;;;;;;28.01;48.74;99373.30;222956;184;138982;-61
2023/08/15 09:25:55;;;;;;;15.60;7.80;;;;;;;28.11;48.61;99369.65;222959;184;139102;-62
2023/08/15 09:31:04;;;;;;;7.70;5.60;;;;;;;28.17;48.79;99366.16;223166;185;145689;-60
2023/08/15 09:36:09;;;;;;;8.00;5.30;;;;;;;28.26;47.46;99363.89;223018;185;139390;-60
2023/08/15 09:41:12;;;;;;;458.90;379.80;;;;;;;28.40;47.91;99360.30;223031;184;137451;-61
2023/08/15 09:46:18;;;;;;;50.30;40.40;;;;;;;28.57;48.42;99358.53;223110;184;146933;-62
2023/08/15 09:51:23;;;;;;;11.40;8.40;;;;;;;28.70;48.27;99354.84;222943;184;140949;-62
2023/08/15 09:56:27;;;;;;;12.70;5.70;;;;;;;28.83;47.88;99350.71;223055;184;138069;-62
2023/08/15 10:01:31;;;;;;;6.70;4.10;;;;;;;28.89;46.67;99343.23;223023;185;145815;-61
2023/08/15 10:06:34;;;;;;;14.10;12.80;;;;;;;28.95;45.39;99337.80;223118;184;138881;-62
2023/08/15 10:11:43;;;;;;;99.20;89.10;;;;;;;29.10;44.18;99331.54;223069;184;137929;-62
2023/08/15 10:16:48;;;;;;;13.30;11.10;;;;;;;29.40;44.01;99319.74;223149;184;146323;-61
2023/08/15 10:21:53;;;;;;;36.70;31.50;;;;;;;29.64;44.86;99318.48;223012;184;139611;-63
2023/08/15 12:45:29;;;;;;;6.90;4.60;;;;;;;31.82;40.65;99249.11;221681;192;665862;-62
2023/08/15 12:50:32;;;;;;;5.00;3.80;;;;;;;31.81;40.55;99247.64;222901;187;136285;-62
2023/08/15 12:55:35;;;;;;;6.20;3.80;;;;;;;31.92;40.93;99242.42;222863;187;144083;-62
2023/08/15 13:00:41;;;;;;;91.90;79.70;;;;;;;32.02;39.65;99244.30;222633;186;140357;-61
2023/08/15 13:05:46;;;;;;;9.30;8.40;;;;;;;32.06;39.22;99240.88;222615;187;136714;-62
2023/08/15 13:10:52;;;;;;;8.60;4.00;;;;;;;32.10;39.62;99238.19;222899;186;143013;-63
2023/08/15 13:15:56;;;;;;;8.00;3.70;;;;;;;32.22;39.93;99243.13;223057;183;140574;-62
2023/08/15 13:20:59;;;;;;;5.00;3.70;;;;;;;32.36;39.15;99236.61;223096;184;136814;-62
2023/08/15 13:26:02;;;;;;;8.60;3.20;;;;;;;32.46;38.23;99229.34;222864;185;145396;-62
2023/08/15 13:31:05;;;;;;;5.60;2.90;;;;;;;32.47;37.25;99224.36;222796;183;139022;-61
2023/08/15 13:36:22;;;;;;;3.50;3.00;;;;;;;32.47;36.53;99220.77;222946;183;137218;-63
2023/08/15 13:41:38;;;;;;;4.00;2.80;;;;;;;32.48;36.29;99228.19;222888;183;145976;-62
2023/08/15 13:46:45;;;;;;;6.30;3.30;;;;;;;32.60;36.28;99220.23;223081;184;138678;-61
2023/08/15 13:51:48;;;;;;;5.90;2.60;;;;;;;32.61;35.40;99220.94;222917;184;136857;-62
2023/08/15 13:56:51;;;;;;;229.20;204.50;;;;;;;32.52;35.63;99214.83;222880;184;146723;-66
2023/08/15 14:01:57;;;;;;;9.40;7.90;;;;;;;32.80;35.79;99212.06;223050;184;139455;-64
2023/08/15 14:07:01;;;;;;;5.00;3.80;;;;;;;32.95;34.79;99214.26;222923;184;138085;-63
2023/08/15 14:12:04;;;;;;;120.10;107.20;;;;;;;33.16;34.59;99206.95;222993;184;145520;-64
2023/08/15 14:17:07;;;;;;;10.30;8.80;;;;;;;33.34;34.24;99205.62;223072;185;139417;-64
2023/08/15 14:22:11;;;;;;;9.50;5.40;;;;;;;33.48;34.87;99201.67;223011;183;137910;-63
2023/08/15 14:27:15;;;;;;;5.40;3.60;;;;;;;33.52;35.26;99194.27;223104;184;146368;-63
2023/08/15 14:32:24;;;;;;;9.70;8.70;;;;;;;33.54;35.48;99192.48;223039;184;138925;-63
2023/08/15 14:37:27;;;;;;;30.60;26.20;;;;;;;33.48;35.30;99193.42;222872;184;136921;-63
2023/08/15 14:42:31;;;;;;;7.70;3.40;;;;;;;33.32;35.06;99188.30;222910;183;146352;-61
2023/08/15 14:47:35;;;;;;;48.90;44.00;;;;;;;33.07;34.58;99184.83;222884;184;139412;-64
2023/08/15 14:52:42;;;;;;;7.50;6.00;;;;;;;32.80;34.86;99181.91;222974;184;137196;-65
2023/08/15 15:27:08;;;;;;;6.90;3.60;;;;;;;31.79;37.58;99178.32;221029;193;668066;-61
2023/08/15 15:32:11;;;;;;;5.60;3.90;;;;;;;31.66;37.37;99178.20;222649;187;136883;-62
2023/08/15 15:37:15;;;;;;;4.70;3.50;;;;;;;31.49;38.29;99178.67;223378;183;144606;-62
2023/08/15 15:42:18;;;;;;;6.60;4.30;;;;;;;31.37;38.80;99173.84;223316;181;139776;-63
2023/08/15 15:47:22;;;;;;;6.00;4.60;;;;;;;31.22;38.43;99169.85;223318;182;137164;-62
2023/08/15 15:52:26;;;;;;;9.40;5.60;;;;;;;31.15;38.16;99164.80;223203;181;143934;-61
2023/08/15 15:57:29;;;;;;;10.30;4.20;;;;;;;31.05;38.77;99153.42;223329;182;140532;-62
2023/08/15 16:02:32;;;;;;;4.90;3.10;;;;;;;30.93;39.37;99150.31;223360;181;137577;-61
2023/08/15 16:07:36;;;;;;;6.00;3.50;;;;;;;30.87;39.08;99148.75;223529;181;143705;-61
2023/08/15 16:12:39;;;;;;;93.00;82.90;;;;;;;30.83;39.58;99144.72;223321;182;139298;-62
2023/08/15 16:17:44;;;;;;;8.90;7.00;;;;;;;30.80;39.84;99144.92;223376;182;137342;-62
2023/08/15 16:22:47;;;;;;;8.10;5.20;;;;;;;30.74;39.91;99145.08;223435;181;146376;-63
2023/08/15 16:27:51;;;;;;;7.20;4.40;;;;;;;30.68;40.40;99147.21;223291;182;139115;-61
2023/08/15 16:32:54;;;;;;;9.40;4.20;;;;;;;30.59;41.11;99150.71;223237;182;137466;-63
2023/08/15 16:37:57;;;;;;;9.70;4.00;;;;;;;30.51;41.74;99148.33;223309;182;146064;-61
2023/08/15 16:43:12;;;;;;;8.00;4.00;;;;;;;30.40;41.86;99146.95;223317;182;139606;-60
2023/08/15 16:48:15;;;;;;;97.00;82.40;;;;;;;30.30;42.40;99144.58;223380;182;137228;-62
2023/08/15 16:53:18;;;;;;;8.80;7.00;;;;;;;30.18;42.81;99138.32;223396;182;146324;-61
2023/08/15 16:58:21;;;;;;;10.70;5.30;;;;;;;30.08;43.26;99136.55;223287;182;144276;-61
2023/08/15 17:03:25;;;;;;;5.30;3.90;;;;;;;29.97;43.60;99132.38;223392;182;137139;-61
2023/08/15 17:08:29;;;;;;;5.30;4.00;;;;;;;29.88;43.90;99130.52;223225;182;147274;-61
2023/08/15 17:13:32;;;;;;;7.80;4.20;;;;;;;29.79;44.30;99130.05;223293;183;138635;-61
2023/08/15 17:18:35;;;;;;;759.00;656.80;;;;;;;29.72;45.06;99128.48;223245;182;136860;-61
2023/08/15 17:23:39;;;;;;;;;;;;;;;29.67;45.59;99125.54;223354;182;147352;-61
2023/08/15 17:28:51;;;;;;;29.40;25.30;;;;;;;29.55;45.89;99123.52;223311;182;138850;-63
2023/08/15 17:33:54;;;;;;;17.40;14.30;;;;;;;29.45;46.27;99124.81;223338;181;136935;-62
2023/08/15 17:38:58;;;;;;;35.20;30.60;;;;;;;29.37;46.84;99129.27;223393;182;147145;-62
2023/08/15 17:44:01;;;;;;;20.70;17.10;;;;;;;29.28;47.39;99131.14;223270;182;138954;-61
2023/08/15 17:49:04;;;;;;;18.80;12.10;;;;;;;29.18;47.82;99127.55;223303;182;138048;-62
2023/08/15 17:54:09;;;;;;;14.30;9.60;;;;;;;29.09;48.05;99132.64;223337;182;146172;-62
2023/08/15 17:59:33;;;;;;;17.80;11.40;;;;;;;28.98;48.54;99131.17;223243;182;140257;-61
2023/08/15 18:04:36;;;;;;;315.40;282.00;;;;;;;28.90;49.05;99140.25;223204;182;138139;-61
2023/08/15 18:09:40;;;;;;;32.20;28.20;;;;;;;28.88;49.46;99145.95;223224;182;145474;-62
2023/08/15 18:14:43;;;;;;;16.50;14.70;;;;;;;28.81;50.07;99153.16;223246;182;139643;-61
2023/08/15 18:19:49;;;;;;;11.60;8.00;;;;;;;28.65;50.68;99161.63;223230;182;137149;-60
2023/08/15 18:24:52;;;;;;;11.20;8.50;;;;;;;28.47;51.06;99168.29;223218;182;145809;-61
2023/08/15 18:29:56;;;;;;;13.40;6.30;;;;;;;28.34;51.23;99174.59;223219;182;139433;-62
2023/08/15 18:34:59;;;;;;;12.10;7.50;;;;;;;28.24;51.74;99180.20;223303;181;136949;-62
2023/08/15 18:40:03;;;;;;;15.20;7.50;;;;;;;28.14;51.88;99186.95;223312;182;146145;-60
2023/08/15 18:45:08;;;;;;;6.90;5.30;;;;;;;28.03;53.04;99191.66;223307;182;139361;-62
2023/08/15 18:50:12;;;;;;;13.10;6.60;;;;;;;27.89;53.41;99195.42;223317;182;139901;-62
2023/08/15 18:55:15;;;;;;;12.00;6.50;;;;;;;27.77;53.97;99197.30;223191;182;148401;-61
2023/08/15 19:00:18;;;;;;;86.90;77.40;;;;;;;27.70;54.43;99203.11;223284;182;140463;-61
2023/08/15 19:05:23;;;;;;;28.80;25.60;;;;;;;27.68;55.07;99205.66;223481;182;137068;-63
2023/08/15 19:10:27;;;;;;;13.70;6.70;;;;;;;27.58;55.07;99212.35;223447;182;145801;-66
2023/08/15 19:15:30;;;;;;;8.80;4.90;;;;;;;27.48;55.65;99213.29;223329;182;139095;-68
2023/08/15 19:20:34;;;;;;;15.40;5.40;;;;;;;27.40;55.75;99209.23;223403;182;136823;-63
2023/08/15 19:25:37;;;;;;;7.90;4.50;;;;;;;27.34;55.89;99213.45;223544;182;146796;-65
2023/08/15 19:30:42;;;;;;;7.40;4.70;;;;;;;27.27;56.07;99217.92;223359;182;139085;-64
2023/08/15 19:35:45;;;;;;;6.90;4.40;;;;;;;27.20;56.31;99215.23;223347;182;137061;-66
2023/08/15 19:40:50;;;;;;;7.10;4.30;;;;;;;27.12;56.41;99215.65;223515;182;145919;-65
2023/08/15 19:45:54;;;;;;;7.20;4.40;;;;;;;27.03;56.23;99213.08;223439;182;138859;-64
2023/08/15 19:50:59;;;;;;;8.50;4.30;;;;;;;26.95;56.38;99221.48;223489;182;137323;-71
2023/08/15 19:56:02;;;;;;;8.30;3.90;;;;;;;26.87;56.18;99221.76;223416;182;146032;-69
2023/08/15 20:01:05;;;;;;;9.30;4.60;;;;;;;26.79;56.37;99224.27;223588;182;140274;-65
2023/08/15 20:06:09;;;;;;;7.80;4.10;;;;;;;26.69;56.55;99229.19;223393;182;137482;-70
2023/08/15 20:11:13;;;;;;;8.00;4.30;;;;;;;26.56;57.16;99225.77;223545;182;147420;-71
2023/08/15 20:16:16;;;;;;;5.40;4.50;;;;;;;26.48;57.09;99226.66;223396;182;141271;-69
2023/08/15 20:21:19;;;;;;;7.80;3.90;;;;;;;26.41;57.10;99230.03;223527;182;139576;-68
2023/08/15 20:26:23;;;;;;;9.10;4.20;;;;;;;26.34;57.25;99230.58;223430;182;145940;-68
2023/08/15 20:31:26;;;;;;;10.90;4.80;;;;;;;26.26;57.22;99231.98;223521;182;140363;-67
2023/08/15 20:36:30;;;;;;;5.50;3.80;;;;;;;26.18;57.51;99232.16;223551;182;138953;-64
2023/08/15 20:41:34;;;;;;;8.10;4.30;;;;;;;26.12;57.73;99232.02;223510;182;146280;-65
2023/08/15 20:46:39;;;;;;;8.10;4.00;;;;;;;26.06;57.86;99239.31;223483;183;140235;-64
2023/08/15 20:51:43;;;;;;;6.80;4.20;;;;;;;25.99;57.98;99233.20;223361;182;139032;-66
2023/08/15 20:56:47;;;;;;;6.80;4.40;;;;;;;25.92;58.26;99232.73;223404;182;146644;-66
2023/08/15 21:01:50;;;;;;;6.70;4.30;;;;;;;25.86;58.14;99238.22;223536;182;138896;-64
2023/08/15 21:06:53;;;;;;;8.10;4.30;;;;;;;25.78;58.38;99241.92;223358;183;136642;-66
2023/08/15 21:11:56;;;;;;;6.30;4.20;;;;;;;25.70;58.44;99239.70;223446;182;145783;-67
2023/08/15 21:17:01;;;;;;;8.00;4.70;;;;;;;25.63;58.71;99236.44;223473;182;140043;-63
2023/08/15 21:27:11;;;;;;;9.30;4.40;;;;;;;25.54;58.66;99231.70;221753;193;666868;-64
2023/08/15 21:32:14;;;;;;;8.10;4.60;;;;;;;25.44;59.20;99235.11;223396;183;138337;-65
2023/08/15 21:37:17;;;;;;;8.60;4.70;;;;;;;25.36;59.31;99231.34;223366;184;144998;-64
2023/08/15 21:42:20;;;;;;;10.20;4.60;;;;;;;25.29;59.28;99225.29;223200;184;138898;-61
2023/08/15 21:47:24;;;;;;;6.60;4.30;;;;;;;25.24;59.49;99220.29;223308;184;136507;-61
2023/08/15 21:52:27;;;;;;;7.90;4.60;;;;;;;25.18;59.73;99218.90;223394;183;144534;-64
2023/08/15 21:57:30;;;;;;;14.70;5.20;;;;;;;25.12;60.38;99221.51;223252;183;138997;-63
2023/08/15 22:02:33;;;;;;;9.30;4.90;;;;;;;25.07;60.66;99229.20;223313;183;137355;-62
2023/08/15 22:07:37;;;;;;;7.90;4.60;;;;;;;25.01;60.99;99234.58;223331;184;144362;-66
2023/08/15 22:12:40;;;;;;;8.30;4.80;;;;;;;24.95;61.36;99234.60;223316;184;139513;-63
2023/08/15 22:17:46;;;;;;;9.80;4.80;;;;;;;24.92;61.56;99234.42;222596;183;138122;-65
2023/08/15 22:23:03;;;;;;;8.40;5.00;;;;;;;24.93;61.99;99235.41;223085;183;145500;-64
2023/08/15 22:28:06;;;;;;;8.00;4.70;;;;;;;24.97;61.92;99240.55;223175;184;139052;-64
2023/08/15 22:33:09;;;;;;;7.90;4.70;;;;;;;24.95;61.81;99239.09;223149;184;137169;-62
2023/08/15 22:38:12;;;;;;;10.60;4.60;;;;;;;24.95;62.15;99239.13;223092;184;145524;-63
2023/08/15 22:43:16;;;;;;;8.70;4.70;;;;;;;24.91;62.15;99240.62;223469;182;139019;-63
2023/08/15 22:48:21;;;;;;;10.60;5.20;;;;;;;24.87;62.20;99242.50;223283;182;138008;-63
2023/08/15 22:53:24;;;;;;;12.30;5.70;;;;;;;24.82;62.52;99242.54;223467;183;147167;-64
2023/08/15 22:58:28;;;;;;;7.00;5.00;;;;;;;24.75;62.91;99241.13;223452;181;139441;-63
2023/08/15 23:25:55;;;;;;;10.60;5.40;;;;;;;24.66;64.04;99224.48;221421;193;666730;-62
2023/08/15 23:30:58;;;;;;;13.30;5.10;;;;;;;24.63;64.08;99227.83;223234;181;137412;-63
2023/08/15 23:36:02;;;;;;;9.50;5.20;;;;;;;24.61;64.04;99228.43;223554;181;143988;-64
2023/08/15 23:41:05;;;;;;;7.10;5.30;;;;;;;24.56;64.32;99225.44;223398;181;160055;-62
2023/08/15 23:46:09;;;;;;;8.90;5.00;;;;;;;24.50;64.34;99228.67;223567;181;136590;-64
2023/08/15 23:51:12;;;;;;;7.10;5.10;;;;;;;24.42;64.49;99230.27;223461;181;144765;-62
2023/08/15 23:56:15;;;;;;;9.60;5.20;;;;;;;24.36;64.62;99235.19;223484;177;140400;-63
